createdAt,value
2022-08-26T00:01:54.324Z,99.90
2022-08-26T00:04:23.905Z,99.90
2022-08-26T00:06:51.192Z,99.90
2022-08-26T00:09:18.176Z,99.90
2022-08-26T00:11:46.012Z,99.90
2022-08-26T00:14:14.565Z,99.90
2022-08-26T00:16:48.226Z,99.90
2022-08-26T00:19:18.326Z,99.90
2022-08-26T00:21:46.393Z,99.90
2022-08-26T00:24:16.133Z,99.90
2022-08-26T00:26:43.297Z,99.90
2022-08-26T00:29:10.169Z,99.90
2022-08-26T00:31:37.727Z,99.90
2022-08-26T00:34:05.596Z,99.90
2022-08-26T00:36:32.783Z,99.90
2022-08-26T00:38:59.455Z,99.90
2022-08-26T00:41:26.815Z,99.90
2022-08-26T00:43:54.224Z,99.90
2022-08-26T00:46:26.899Z,99.90
2022-08-26T00:49:04.063Z,99.90
2022-08-26T00:51:45.877Z,99.90
2022-08-26T00:54:13.385Z,99.90
2022-08-26T00:56:59.889Z,99.90
2022-08-26T00:59:28.867Z,99.90
2022-08-26T01:01:59.736Z,99.90
2022-08-26T01:04:31.428Z,99.90
2022-08-26T01:06:59.059Z,99.90
2022-08-26T01:09:26.967Z,99.90
2022-08-26T01:11:57.774Z,99.90
2022-08-26T01:14:29.524Z,99.90
2022-08-26T01:16:56.641Z,99.90
2022-08-26T01:19:31.162Z,99.90
2022-08-26T01:22:16.964Z,99.90
2022-08-26T01:24:44.284Z,99.90
2022-08-26T01:27:15.725Z,99.90
2022-08-26T01:29:45.222Z,99.90
2022-08-26T01:32:19.717Z,99.90
2022-08-26T01:34:47.808Z,99.90
2022-08-26T01:37:18.770Z,99.90
2022-08-26T01:39:49.654Z,99.90
2022-08-26T01:42:18.293Z,99.90
2022-08-26T01:44:55.712Z,99.90
2022-08-26T01:47:26.451Z,99.90
2022-08-26T01:49:55.903Z,99.90
2022-08-26T01:52:27.628Z,99.90
2022-08-26T01:54:57.321Z,99.90
2022-08-26T01:57:26.055Z,99.90
2022-08-26T01:59:55.169Z,99.90
2022-08-26T02:02:23.191Z,99.90
2022-08-26T02:04:56.935Z,99.90
2022-08-26T02:07:26.644Z,99.90
2022-08-26T02:09:53.887Z,99.90
2022-08-26T02:12:21.031Z,99.90
2022-08-26T02:14:53.967Z,99.90
2022-08-26T02:17:29.968Z,99.90
2022-08-26T02:19:58.596Z,99.90
2022-08-26T02:22:25.286Z,99.90
2022-08-26T02:25:16.777Z,99.90
2022-08-26T02:27:43.520Z,99.90
2022-08-26T02:30:24.446Z,99.90
2022-08-26T02:32:53.149Z,99.90
2022-08-26T02:35:21.847Z,99.90
2022-08-26T02:37:50.089Z,99.90
2022-08-26T02:40:22.940Z,99.90
2022-08-26T02:42:50.199Z,99.90
2022-08-26T02:45:23.402Z,99.90
2022-08-26T02:47:51.638Z,99.90
2022-08-26T02:50:19.856Z,99.90
2022-08-26T02:52:48.279Z,99.90
2022-08-26T02:55:16.282Z,99.90
2022-08-26T02:57:43.393Z,99.90
2022-08-26T03:00:13.484Z,99.90
2022-08-26T03:02:40.243Z,99.90
2022-08-26T03:05:07.828Z,99.90
2022-08-26T03:07:34.561Z,99.90
2022-08-26T03:10:01.285Z,99.90
2022-08-26T03:12:34.190Z,99.90
2022-08-26T03:15:01.633Z,99.90
2022-08-26T03:17:30.334Z,99.90
2022-08-26T03:19:57.496Z,99.90
2022-08-26T03:22:25.240Z,99.90
2022-08-26T03:24:52.811Z,99.90
2022-08-26T03:27:20.220Z,99.90
2022-08-26T03:30:06.096Z,99.90
2022-08-26T03:32:33.161Z,99.90
2022-08-26T03:34:59.825Z,99.90
2022-08-26T03:37:27.043Z,99.90
2022-08-26T03:39:54.061Z,99.90
2022-08-26T03:42:22.433Z,99.90
2022-08-26T03:44:49.911Z,99.90
2022-08-26T03:47:17.461Z,99.90
2022-08-26T03:49:44.137Z,99.90
2022-08-26T03:52:11.971Z,99.90
2022-08-26T03:54:39.009Z,99.90
2022-08-26T03:57:05.691Z,99.90
2022-08-26T03:59:32.823Z,99.90
2022-08-26T04:01:59.573Z,99.90
2022-08-26T04:04:26.740Z,99.90
2022-08-26T04:06:58.511Z,99.90
2022-08-26T04:09:26.425Z,99.90
2022-08-26T04:11:54.435Z,99.90
2022-08-26T04:14:24.255Z,99.90
2022-08-26T04:16:52.005Z,99.90
2022-08-26T04:19:20.929Z,99.90
2022-08-26T04:21:48.989Z,99.90
2022-08-26T04:24:16.755Z,99.90
2022-08-26T04:26:44.888Z,99.90
2022-08-26T04:29:24.347Z,99.90
2022-08-26T04:31:55.547Z,99.90
2022-08-26T04:34:25.213Z,99.90
2022-08-26T04:36:56.016Z,99.90
2022-08-26T04:39:22.718Z,99.90
2022-08-26T04:41:50.908Z,99.90
2022-08-26T04:44:18.940Z,99.90
2022-08-26T04:46:45.711Z,99.90
2022-08-26T04:49:13.544Z,99.90
2022-08-26T04:51:40.803Z,99.90
2022-08-26T04:54:08.497Z,99.90
2022-08-26T04:56:38.272Z,99.90
2022-08-26T04:59:17.082Z,99.90
2022-08-26T05:01:53.129Z,99.90
2022-08-26T05:04:20.984Z,99.90
2022-08-26T05:06:49.040Z,99.90
2022-08-26T05:09:16.251Z,99.90
2022-08-26T05:11:43.262Z,99.90
2022-08-26T05:14:10.031Z,99.90
2022-08-26T05:16:40.417Z,99.90
2022-08-26T05:19:08.606Z,99.90
2022-08-26T05:21:38.901Z,99.90
2022-08-26T05:24:05.790Z,99.90
2022-08-26T05:26:33.832Z,99.90
2022-08-26T05:29:00.556Z,99.90
2022-08-26T05:31:31.642Z,99.90
2022-08-26T05:33:59.807Z,99.90
2022-08-26T05:36:33.915Z,99.90
2022-08-26T05:39:03.539Z,99.90
2022-08-26T05:41:34.459Z,99.90
2022-08-26T05:44:05.986Z,99.90
2022-08-26T05:46:33.918Z,99.90
2022-08-26T05:49:01.839Z,99.90
2022-08-26T05:51:29.278Z,99.90
2022-08-26T05:53:57.558Z,99.90
2022-08-26T05:56:27.316Z,99.90
2022-08-26T05:58:55.894Z,99.90
2022-08-26T06:01:28.226Z,99.90
2022-08-26T06:04:01.299Z,99.90
2022-08-26T06:06:34.804Z,99.90
2022-08-26T06:09:05.453Z,99.90
2022-08-26T06:11:33.324Z,99.90
2022-08-26T06:14:04.447Z,99.90
2022-08-26T06:16:34.595Z,99.90
2022-08-26T06:19:02.963Z,99.90
2022-08-26T06:21:35.365Z,99.90
2022-08-26T06:24:26.996Z,99.90
2022-08-26T06:26:56.940Z,99.90
2022-08-26T06:29:27.988Z,99.90
2022-08-26T06:31:56.593Z,99.90
2022-08-26T06:34:29.722Z,99.90
2022-08-26T06:37:01.221Z,99.90
2022-08-26T06:39:30.721Z,99.90
2022-08-26T06:41:58.882Z,99.90
2022-08-26T06:44:26.143Z,99.90
2022-08-26T06:46:53.507Z,99.90
2022-08-26T06:49:25.609Z,99.90
2022-08-26T06:52:00.204Z,99.90
2022-08-26T06:54:30.503Z,99.90
2022-08-26T06:56:57.874Z,99.90
2022-08-26T06:59:25.573Z,99.90
2022-08-26T07:01:52.458Z,99.90
2022-08-26T07:04:23.180Z,99.90
2022-08-26T07:06:52.781Z,99.90
2022-08-26T07:09:21.822Z,99.90
2022-08-26T07:11:49.536Z,99.90
2022-08-26T07:14:19.301Z,99.90
2022-08-26T07:16:49.525Z,99.90
2022-08-26T07:19:29.825Z,99.90
2022-08-26T07:22:03.504Z,99.90
2022-08-26T07:24:32.943Z,99.90
2022-08-26T07:27:02.801Z,99.90
2022-08-26T07:29:30.190Z,99.90
2022-08-26T07:31:58.130Z,99.90
2022-08-26T07:34:26.153Z,99.90
2022-08-26T07:36:53.469Z,99.90
2022-08-26T07:39:22.831Z,99.90
2022-08-26T07:41:49.684Z,99.90
2022-08-26T07:44:16.985Z,99.50
2022-08-26T07:46:44.127Z,99.00
2022-08-26T07:49:12.473Z,98.60
2022-08-26T07:51:40.337Z,98.80
2022-08-26T07:54:07.837Z,98.30
2022-08-26T07:56:35.249Z,98.20
2022-08-26T07:59:03.892Z,98.30
2022-08-26T08:01:41.121Z,97.90
2022-08-26T08:04:15.917Z,98.30
2022-08-26T08:06:43.973Z,97.90
2022-08-26T08:09:12.334Z,97.70
2022-08-26T08:11:39.193Z,97.80
2022-08-26T08:14:08.631Z,97.80
2022-08-26T08:16:42.553Z,98.30
2022-08-26T08:19:15.132Z,97.90
2022-08-26T08:21:43.419Z,97.70
2022-08-26T08:24:11.217Z,97.90
2022-08-26T08:26:38.569Z,98.30
2022-08-26T08:29:05.523Z,98.40
2022-08-26T08:34:21.545Z,98.60
2022-08-26T08:36:50.638Z,98.30
2022-08-26T08:39:20.670Z,97.80
2022-08-26T08:42:17.926Z,97.60
2022-08-26T08:44:52.009Z,97.90
2022-08-26T08:47:34.211Z,97.10
2022-08-26T08:50:25.371Z,96.40
2022-08-26T08:53:10.228Z,96.10
2022-08-26T08:56:03.929Z,96.10
2022-08-26T08:58:42.439Z,95.70
2022-08-26T09:01:20.169Z,95.80
2022-08-26T09:03:55.039Z,95.80
2022-08-26T09:06:22.327Z,96.10
2022-08-26T09:08:51.297Z,96.30
2022-08-26T09:11:21.195Z,96.10
2022-08-26T09:13:50.378Z,96.10
2022-08-26T09:16:41.014Z,96.40
2022-08-26T09:19:32.576Z,97.10
2022-08-26T09:22:04.650Z,96.70
2022-08-26T09:24:39.626Z,97.10
2022-08-26T09:27:09.073Z,97.30
2022-08-26T09:29:45.406Z,97.30
2022-08-26T09:32:24.885Z,97.40
2022-08-26T09:35:01.208Z,96.60
2022-08-26T09:40:23.872Z,93.90
2022-08-26T09:43:11.516Z,92.90
2022-08-26T09:45:41.291Z,92.80
2022-08-26T09:48:36.752Z,92.50
2022-08-26T09:51:23.819Z,93.00
2022-08-26T09:53:54.436Z,92.20
2022-08-26T09:56:29.142Z,92.80
2022-08-26T09:58:56.918Z,92.10
2022-08-26T10:01:23.997Z,91.70
2022-08-26T10:03:55.279Z,92.00
2022-08-26T10:06:27.204Z,90.70
2022-08-26T10:08:58.941Z,90.60
2022-08-26T10:11:45.202Z,90.10
2022-08-26T10:14:33.785Z,84.20
2022-08-26T10:17:21.126Z,86.60
2022-08-26T10:19:56.580Z,85.50
2022-08-26T10:22:30.397Z,88.80
2022-08-26T10:25:02.783Z,85.30
2022-08-26T10:27:53.760Z,83.70
2022-08-26T10:30:26.378Z,83.60
2022-08-26T10:33:01.043Z,83.20
2022-08-26T10:35:29.036Z,82.30
2022-08-26T10:38:04.590Z,79.50
2022-08-26T10:40:51.545Z,77.40
2022-08-26T10:43:27.457Z,74.60
2022-08-26T10:46:01.181Z,72.90
2022-08-26T10:48:39.288Z,73.50
2022-08-26T10:51:06.540Z,74.10
2022-08-26T10:54:27.177Z,72.40
2022-08-26T10:57:13.031Z,71.70
2022-08-26T10:59:49.773Z,73.10
2022-08-26T11:02:47.058Z,71.20
2022-08-26T11:05:20.124Z,69.60
2022-08-26T11:07:51.758Z,71.40
2022-08-26T11:10:21.382Z,72.10
2022-08-26T11:12:59.233Z,72.40
2022-08-26T11:15:29.443Z,69.20
2022-08-26T11:18:00.135Z,69.60
2022-08-26T11:20:31.015Z,72.70
2022-08-26T11:23:21.228Z,71.80
2022-08-26T11:26:13.600Z,72.70
2022-08-26T11:28:59.640Z,71.50
2022-08-26T11:31:30.493Z,72.70
2022-08-26T11:34:08.827Z,72.80
2022-08-26T11:36:40.685Z,71.40
2022-08-26T11:39:14.197Z,68.10
2022-08-26T11:41:52.730Z,66.10
2022-08-26T11:44:23.526Z,67.20
2022-08-26T11:47:01.315Z,68.30
2022-08-26T11:49:29.377Z,67.70
2022-08-26T11:52:20.953Z,65.20
2022-08-26T11:55:12.335Z,64.70
2022-08-26T11:57:49.287Z,63.00
2022-08-26T12:00:45.973Z,63.70
2022-08-26T12:03:25.344Z,64.30
2022-08-26T12:05:53.332Z,59.90
2022-08-26T12:08:27.906Z,61.20
2022-08-26T12:11:06.297Z,60.30
2022-08-26T12:13:34.396Z,60.30
2022-08-26T12:16:01.546Z,59.40
2022-08-26T12:18:36.066Z,59.90
2022-08-26T12:21:16.237Z,58.80
2022-08-26T12:23:49.955Z,56.30
2022-08-26T12:26:25.816Z,58.30
2022-08-26T12:29:19.860Z,57.10
2022-08-26T12:31:48.184Z,57.20
2022-08-26T12:34:17.530Z,58.00
2022-08-26T12:36:54.471Z,57.50
2022-08-26T12:39:33.770Z,58.00
2022-08-26T12:42:21.901Z,59.00
2022-08-26T12:45:00.580Z,58.10
2022-08-26T12:47:35.117Z,56.40
2022-08-26T12:50:16.512Z,57.40
2022-08-26T12:53:04.577Z,57.30
2022-08-26T12:55:44.352Z,58.30
2022-08-26T12:58:36.626Z,58.50
2022-08-26T13:01:09.151Z,57.90
2022-08-26T13:03:39.235Z,56.40
2022-08-26T13:06:15.961Z,57.70
2022-08-26T13:09:24.691Z,60.30
2022-08-26T13:11:53.112Z,58.30
2022-08-26T13:14:24.286Z,59.20
2022-08-26T13:16:52.826Z,60.30
2022-08-26T13:19:22.843Z,61.00
2022-08-26T13:21:57.873Z,58.30
2022-08-26T13:24:42.168Z,59.30
2022-08-26T13:27:11.754Z,58.50
2022-08-26T13:29:38.550Z,57.50
2022-08-26T13:32:06.866Z,55.60
2022-08-26T13:34:35.296Z,57.10
2022-08-26T13:37:02.037Z,58.10
2022-08-26T13:39:29.245Z,58.00
2022-08-26T13:41:56.149Z,56.60
2022-08-26T13:44:22.876Z,56.10
2022-08-26T13:46:49.910Z,57.50
2022-08-26T13:49:16.655Z,57.70
2022-08-26T13:51:44.080Z,58.00
2022-08-26T13:54:10.752Z,58.10
2022-08-26T13:56:37.894Z,58.70
2022-08-26T13:59:05.671Z,57.90
2022-08-26T14:01:35.606Z,55.90
2022-08-26T14:04:03.082Z,56.50
2022-08-26T14:06:30.463Z,58.50
2022-08-26T14:08:57.779Z,58.40
2022-08-26T14:11:25.343Z,58.30
2022-08-26T14:13:52.365Z,55.20
2022-08-26T14:16:27.346Z,59.00
2022-08-26T14:18:54.827Z,59.60
2022-08-26T14:21:21.983Z,57.00
2022-08-26T14:23:48.651Z,57.80
2022-08-26T14:26:28.878Z,56.70
2022-08-26T14:28:59.854Z,60.40
2022-08-26T14:31:29.594Z,63.10
2022-08-26T14:34:03.058Z,62.60
2022-08-26T14:36:33.974Z,62.90
2022-08-26T14:39:08.187Z,64.10
2022-08-26T14:41:57.314Z,64.60
2022-08-26T14:44:32.655Z,65.20
2022-08-26T14:47:01.757Z,68.60
2022-08-26T14:49:28.529Z,69.30
2022-08-26T14:51:55.771Z,70.40
2022-08-26T14:54:22.891Z,70.20
2022-08-26T14:56:51.447Z,70.30
2022-08-26T14:59:28.149Z,70.80
2022-08-26T15:01:55.684Z,70.80
2022-08-26T15:04:23.408Z,70.30
2022-08-26T15:06:51.631Z,69.50
2022-08-26T15:09:18.514Z,70.70
2022-08-26T15:11:47.636Z,67.30
2022-08-26T15:14:19.712Z,68.60
2022-08-26T15:16:53.396Z,67.80
2022-08-26T15:19:20.903Z,67.60
2022-08-26T15:21:48.214Z,66.80
2022-08-26T15:24:18.343Z,67.30
2022-08-26T15:26:45.989Z,69.70
2022-08-26T15:29:13.110Z,70.00
2022-08-26T15:31:40.250Z,71.80
2022-08-26T15:34:12.098Z,72.20
2022-08-26T15:36:45.059Z,71.90
2022-08-26T15:39:12.693Z,72.30
2022-08-26T15:41:40.062Z,72.10
2022-08-26T15:44:08.096Z,72.10
2022-08-26T15:46:35.700Z,71.30
2022-08-26T15:49:04.472Z,73.30
2022-08-26T15:51:35.724Z,72.20
2022-08-26T15:54:13.040Z,73.20
2022-08-26T15:56:40.076Z,72.30
2022-08-26T15:59:11.503Z,72.50
2022-08-26T16:01:39.923Z,71.30
2022-08-26T16:04:07.187Z,71.80
2022-08-26T16:06:37.795Z,71.70
2022-08-26T16:09:05.252Z,71.60
2022-08-26T16:11:33.145Z,71.20
2022-08-26T16:13:59.848Z,69.20
2022-08-26T16:16:27.359Z,68.30
2022-08-26T16:18:54.703Z,66.60
2022-08-26T16:21:24.911Z,67.40
2022-08-26T16:23:52.107Z,66.40
2022-08-26T16:26:25.066Z,64.60
2022-08-26T16:28:52.557Z,63.70
2022-08-26T16:31:19.733Z,63.60
2022-08-26T16:33:46.433Z,63.90
2022-08-26T16:36:14.333Z,64.40
2022-08-26T16:38:42.088Z,64.60
2022-08-26T16:41:09.183Z,66.10
2022-08-26T16:43:36.585Z,67.80
2022-08-26T16:46:07.279Z,69.90
2022-08-26T16:48:34.652Z,70.60
2022-08-26T16:51:01.739Z,70.10
2022-08-26T16:53:28.521Z,70.70
2022-08-26T16:55:55.714Z,72.10
2022-08-26T16:58:22.510Z,72.80
2022-08-26T17:00:49.595Z,72.50
2022-08-26T17:03:16.850Z,71.30
2022-08-26T17:05:43.993Z,70.90
2022-08-26T17:08:10.969Z,70.30
2022-08-26T17:10:38.133Z,71.30
2022-08-26T17:13:04.924Z,73.80
2022-08-26T17:15:32.251Z,73.60
2022-08-26T17:17:59.052Z,70.90
2022-08-26T17:20:26.707Z,71.90
2022-08-26T17:22:55.163Z,74.00
2022-08-26T17:25:29.701Z,75.80
2022-08-26T17:30:29.804Z,77.20
2022-08-26T17:32:57.711Z,77.80
2022-08-26T17:35:25.225Z,79.80
2022-08-26T17:37:52.647Z,80.80
2022-08-26T17:40:23.442Z,79.40
2022-08-26T17:42:50.356Z,79.40
2022-08-26T17:45:18.227Z,80.00
2022-08-26T17:47:45.405Z,81.80
2022-08-26T17:50:15.515Z,83.70
2022-08-26T17:52:44.006Z,84.30
2022-08-26T17:55:13.372Z,84.70
2022-08-26T17:57:40.827Z,85.40
2022-08-26T18:00:16.592Z,86.20
2022-08-26T18:02:43.389Z,87.00
2022-08-26T18:05:13.030Z,86.10
2022-08-26T18:07:44.157Z,87.50
2022-08-26T18:10:13.497Z,87.50
2022-08-26T18:12:41.580Z,88.00
2022-08-26T18:15:10.002Z,88.40
2022-08-26T18:17:38.981Z,88.80
2022-08-26T18:20:08.505Z,90.00
2022-08-26T18:22:35.376Z,90.00
2022-08-26T18:25:02.431Z,90.60
2022-08-26T18:27:29.112Z,90.60
2022-08-26T18:29:56.753Z,90.60
2022-08-26T18:32:23.990Z,90.70
2022-08-26T18:34:51.137Z,90.30
2022-08-26T18:37:17.817Z,90.20
2022-08-26T18:39:44.925Z,90.00
2022-08-26T18:42:11.677Z,90.10
2022-08-26T18:44:38.816Z,90.20
2022-08-26T18:47:05.626Z,90.50
2022-08-26T18:49:32.379Z,90.60
2022-08-26T18:51:59.110Z,90.60
2022-08-26T18:54:26.270Z,90.90
2022-08-26T18:56:53.263Z,91.10
2022-08-26T18:59:29.591Z,91.30
2022-08-26T19:01:57.806Z,91.40
2022-08-26T19:04:24.888Z,91.80
2022-08-26T19:06:51.949Z,92.20
2022-08-26T19:09:19.553Z,92.50
2022-08-26T19:11:49.595Z,92.80
2022-08-26T19:14:17.246Z,92.90
2022-08-26T19:16:46.550Z,92.80
2022-08-26T19:19:15.088Z,92.40
2022-08-26T19:21:42.076Z,92.50
2022-08-26T19:24:15.797Z,92.70
2022-08-26T19:26:44.101Z,93.20
2022-08-26T19:29:11.636Z,93.50
2022-08-26T19:31:38.332Z,94.10
2022-08-26T19:34:07.206Z,94.40
2022-08-26T19:36:34.278Z,94.80
2022-08-26T19:39:04.824Z,95.70
2022-08-26T19:41:37.408Z,95.50
2022-08-26T19:44:36.669Z,95.70
2022-08-26T19:47:05.560Z,95.10
2022-08-26T19:49:33.944Z,94.70
2022-08-26T19:52:04.300Z,94.30
2022-08-26T19:54:31.438Z,94.40
2022-08-26T19:56:58.317Z,94.40
2022-08-26T19:59:25.312Z,94.20
2022-08-26T20:02:01.160Z,94.20
2022-08-26T20:04:30.311Z,94.40
2022-08-26T20:06:57.826Z,94.20
2022-08-26T20:09:28.883Z,94.10
2022-08-26T20:11:56.800Z,94.00
2022-08-26T20:14:25.596Z,93.80
2022-08-26T20:16:55.927Z,94.20
2022-08-26T20:19:41.592Z,93.70
2022-08-26T20:22:08.775Z,93.70
2022-08-26T20:24:36.572Z,93.50
2022-08-26T20:27:07.771Z,93.60
2022-08-26T20:29:36.128Z,94.00
2022-08-26T20:32:05.948Z,94.10
2022-08-26T20:34:34.552Z,94.40
2022-08-26T20:37:02.021Z,94.40
2022-08-26T20:39:29.999Z,94.30
2022-08-26T20:41:57.940Z,94.50
2022-08-26T20:44:25.293Z,94.50
2022-08-26T20:46:52.322Z,94.30
2022-08-26T20:49:19.404Z,93.90
2022-08-26T20:51:51.331Z,93.90
2022-08-26T20:54:19.560Z,94.30
2022-08-26T20:56:46.674Z,94.40
2022-08-26T20:59:14.480Z,94.20
2022-08-26T21:01:42.442Z,94.30
2022-08-26T21:04:14.098Z,94.40
2022-08-26T21:06:42.329Z,94.70
2022-08-26T21:09:17.883Z,95.10
2022-08-26T21:11:45.456Z,95.50
2022-08-26T21:14:16.854Z,95.20
2022-08-26T21:16:45.123Z,94.90
2022-08-26T21:19:14.957Z,94.80
2022-08-26T21:21:42.175Z,95.40
2022-08-26T21:24:09.419Z,95.80
2022-08-26T21:26:36.195Z,95.70
2022-08-26T21:29:04.076Z,95.90
2022-08-26T21:31:31.980Z,96.20
2022-08-26T21:33:59.998Z,96.40
2022-08-26T21:36:26.785Z,96.20
2022-08-26T21:38:58.730Z,96.50
2022-08-26T21:41:26.216Z,96.50
2022-08-26T21:43:56.076Z,96.10
2022-08-26T21:46:24.536Z,96.60
2022-08-26T21:48:57.533Z,96.40
2022-08-26T21:51:26.159Z,96.70
2022-08-26T21:53:54.536Z,97.00
2022-08-26T21:56:25.783Z,97.10
2022-08-26T21:58:55.285Z,96.90
2022-08-26T22:01:25.388Z,97.10
2022-08-26T22:03:53.487Z,96.70
2022-08-26T22:06:24.327Z,96.50
2022-08-26T22:08:52.666Z,96.50
2022-08-26T22:11:19.920Z,95.40
2022-08-26T22:13:48.727Z,95.70
2022-08-26T22:16:15.624Z,95.30
2022-08-26T22:18:43.820Z,94.60
2022-08-26T22:21:21.889Z,94.90
2022-08-26T22:23:48.873Z,94.70
2022-08-26T22:26:25.358Z,95.00
2022-08-26T22:28:58.742Z,94.80
2022-08-26T22:31:38.295Z,95.10
2022-08-26T22:34:12.287Z,95.70
2022-08-26T22:36:43.941Z,95.90
2022-08-26T22:39:18.466Z,96.20
2022-08-26T22:41:48.405Z,96.20
2022-08-26T22:44:16.828Z,96.40
2022-08-26T22:46:44.248Z,96.60
2022-08-26T22:49:16.055Z,96.80
2022-08-26T22:51:44.572Z,96.40
2022-08-26T22:54:11.980Z,96.70
2022-08-26T22:56:39.452Z,97.00
2022-08-26T22:59:08.284Z,97.10
2022-08-26T23:01:38.012Z,96.90
2022-08-26T23:04:06.634Z,97.00
2022-08-26T23:06:38.197Z,97.00
2022-08-26T23:09:06.639Z,97.40
2022-08-26T23:11:33.503Z,97.90
2022-08-26T23:14:02.901Z,98.20
2022-08-26T23:16:43.892Z,98.10
2022-08-26T23:19:12.908Z,98.20
2022-08-26T23:21:40.301Z,97.80
2022-08-26T23:24:07.974Z,97.90
2022-08-26T23:26:35.402Z,98.00
2022-08-26T23:29:03.050Z,98.10
2022-08-26T23:31:30.103Z,98.00
2022-08-26T23:34:15.775Z,97.90
2022-08-26T23:36:44.601Z,97.90
2022-08-26T23:39:13.715Z,98.10
2022-08-26T23:41:40.670Z,98.20
2022-08-26T23:44:07.691Z,98.40
2022-08-26T23:46:35.199Z,98.70
2022-08-26T23:49:02.421Z,98.90
2022-08-26T23:51:48.244Z,99.60
2022-08-26T23:54:15.721Z,99.90
2022-08-26T23:56:42.519Z,99.90
2022-08-26T23:59:09.524Z,99.90
